La Grande Rivière Airport
CYGL : now visible

Airfield :











YOU CAN JOIN US ON...

 
LOGIN :

Register | Disclaimer

   EN    FR    IT 

 









Legend :    VFR   Marginal VFR   IFR   Intensive IFR   Very Intensive IFR
Visi :
Ceiling :
>= 8 km
>= 3000ft
5 to 8 km
1000 to 3000 ft
1500m to 5 km
500 to 1000 ft
800 to 1500m
200 to 500 ft
< 800m
< 200 ft
Symbols :   Thunderstorms  Fog  Heavy snow  Heavy precipitations  Wind > 20 kt






- Airport Elevation : 639 ft
- IATA code : YGL


CYGL - La Grande Rivière

CURRENT METAR :
  • 290600Z 22006KT 15SM -SN OVC004 M08/M09 A3012 RMK SF8 SLP215

EXPIRED METARs :
  • 290545Z 22004KT 15SM -SN OVC004 M08/M09 A3012 RMK SF8 SLP215
  • 290500Z 24006KT 15SM -SN OVC005 M07/M09 A3010 RMK SF8 SLP211
  • 290400Z 25005KT 15SM -SN OVC006 M07/M08 A3008 RMK SF8 SLP204
  • 290300Z 27007KT 15SM -SN OVC006 M07/M08 A3008 RMK SF8 SLP204

TAF TAF CYGL
Valid from the 29 at 06:00 until the 30 at 06:00 UTC


290538Z 2906/3006 24005KT P6SM -SN OVC005
FM291400 12010KT P6SM BKN012
FM291600 11010KT P6SM FEW015
FM300300 03008KT P6SM FEW006 SCT240 RMK NXT FCST BY 291200Z



MET'MAP, your aeronautical weather chart ! - Copyright ORBIFLY December 2007 - Disclaimer

ORBIFLY MET'MAP TEAM :

Programming & Development : Alexandra Zaïnal
Concept & original design : Baudouin d'Aumeries
Assistance for programming : Marc-Olivier Méhu
Technical & hardware support : Manuel Goepfert

Contact : metmap@orbifly.com




SOURCES & CREDITS :

   NOAA       Earth
Advisory